Pagrindinis puslapis
METAR-TAF:

METAR-TAF

Oro uostai :

Hartsfyldo-Džaksono Atlantos tarptautinis oro uostas

Atlanta, Georgia, Jungtinės Amerikos Valstijos

platuma: 33-38-25N, ilguma: 084-25-37W, Aukštis: 313 m

Dabartinis oras

Ataskaita buvo paskelbta 46 minutes, ne 22:52 UTC
Vėjas 11 kt iš Rytų
Temperatūra 26°C
Drėgmė 45%
Slėgis 1021 hPa
Matomumas: 16.1 km
Mažai debesys ne aukštis 5500 ft
Mažai debesys ne aukštis 25000 ft

METAR: KATL 192252Z 09011KT 10SM FEW055 FEW250 26/13 A3016 RMK AO2 SLP204 T02610128

Laikas: 19:38 (23:38 UTC)

Prognozė

Ataskaita buvo paskelbta 18 minutes, ne 23:20 UTC
Prognozė galioja nuo 20 metu 00 UTC su 21 metu 06 UTC
Vėjas 7 kt iš Rytų
Matomumas: 10 km
Giedras dangus
Nuo 20 metu 1500 UTC
Vėjas 9 kt iš Rytų
Matomumas: 10 km
Giedras dangus

TAF: KATL 192320Z 2000/2106 09007KT P6SM SKC FM201500 10009KT P6SM SKC

Orai ataskaitas ir orų prognozės (METAR, TAF).

turimą stotys yra geltonos ir raudonos taškus žemėlapyje.

Perkelti pele per norėdami pamatyti stoties vardą.

Tada spustelėkite, norėdami matyti oro stebėjimo ir prognozės.

Norėdami pakeisti žemėlapį: spustelėkite ant žalios mygtukų su juodo kryžiaus žemyn,; žalią mygtuką su brūkšneliu, jei norite nutolinti; arba žalių rodyklių gretimoms žemėlapius.


METAR-TAF: